createdAt,value
2019-01-26T00:01:45.601Z,95222.87
2019-01-26T00:04:18.277Z,95226.54
2019-01-26T00:06:50.985Z,95226.16
2019-01-26T00:09:23.649Z,95214.87
2019-01-26T00:11:57.491Z,95209.52
2019-01-26T00:14:30.367Z,95220.55
2019-01-26T00:17:03.052Z,95213.27
2019-01-26T00:19:35.678Z,95214.73
2019-01-26T00:22:08.458Z,95208.44
2019-01-26T00:24:41.038Z,95215.52
2019-01-26T00:27:13.857Z,95218.58
2019-01-26T00:29:46.483Z,95207.75
2019-01-26T00:32:19.091Z,95206.44
2019-01-26T00:34:51.852Z,95213.55
2019-01-26T00:37:24.436Z,95211.48
2019-01-26T00:39:57.070Z,95214.73
2019-01-26T00:42:29.763Z,95221.56
2019-01-26T00:45:02.454Z,95221.42
2019-01-26T00:47:35.256Z,95227.75
2019-01-26T00:50:09.133Z,95231.67
2019-01-26T00:52:41.799Z,95232.52
2019-01-26T00:55:14.843Z,95238.86
2019-01-26T00:57:47.592Z,95234.42
2019-01-26T01:00:20.696Z,95223.53
2019-01-26T01:02:53.386Z,95224.81
2019-01-26T01:05:25.998Z,95223.03
2019-01-26T01:07:58.621Z,95213.80
2019-01-26T01:10:31.256Z,95217.48
2019-01-26T01:13:03.933Z,95216.13
2019-01-26T01:15:36.788Z,95220.80
2019-01-26T01:18:09.431Z,95223.89
2019-01-26T01:20:42.162Z,95229.73
2019-01-26T01:23:14.861Z,95228.45
2019-01-26T01:25:47.514Z,95226.09
2019-01-26T01:28:20.101Z,95231.38
2019-01-26T01:30:52.739Z,95228.62
2019-01-26T01:33:25.456Z,95223.23
2019-01-26T01:35:58.255Z,95230.82
2019-01-26T01:38:31.031Z,95229.47
2019-01-26T01:41:03.676Z,95220.74
2019-01-26T01:43:36.276Z,95219.52
2019-01-26T01:46:08.981Z,95209.32
2019-01-26T01:48:41.769Z,95211.91
2019-01-26T01:51:14.376Z,95207.61
2019-01-26T01:53:46.978Z,95204.66
2019-01-26T01:56:19.571Z,95194.89
2019-01-26T01:58:53.070Z,95194.16
2019-01-26T02:01:25.653Z,95185.79
2019-01-26T02:03:58.294Z,95188.15
2019-01-26T02:06:30.886Z,95177.48
2019-01-26T02:09:04.177Z,95177.91
2019-01-26T02:11:36.810Z,95180.48
2019-01-26T02:14:09.671Z,95179.83
2019-01-26T02:16:42.327Z,95177.39
2019-01-26T02:19:15.011Z,95170.47
2019-01-26T02:21:47.661Z,95175.72
2019-01-26T02:24:20.251Z,95176.58
2019-01-26T02:26:52.915Z,95171.46
2019-01-26T02:29:25.600Z,95174.58
2019-01-26T02:31:58.274Z,95175.66
2019-01-26T02:34:30.907Z,95168.55
2019-01-26T02:37:03.637Z,95165.72
2019-01-26T02:39:36.266Z,95164.11
2019-01-26T02:42:09.862Z,95165.39
2019-01-26T02:44:42.595Z,95169.27
2019-01-26T02:47:15.180Z,95172.97
2019-01-26T02:49:47.766Z,95166.80
2019-01-26T02:52:20.412Z,95164.84
2019-01-26T02:54:53.062Z,95157.62
2019-01-26T02:57:25.685Z,95161.30
2019-01-26T02:59:58.274Z,95156.17
2019-01-26T03:02:30.955Z,95157.91
2019-01-26T03:05:03.622Z,95159.58
2019-01-26T03:07:36.362Z,95155.84
2019-01-26T03:10:11.230Z,95157.19
2019-01-26T03:12:43.901Z,95156.23
2019-01-26T03:15:19.580Z,95163.09
2019-01-26T03:17:52.353Z,95158.34
2019-01-26T03:20:25.116Z,95168.83
2019-01-26T03:22:57.754Z,95164.59
2019-01-26T03:25:30.410Z,95168.39
2019-01-26T03:28:03.020Z,95156.50
2019-01-26T03:30:35.773Z,95162.91
2019-01-26T03:33:08.455Z,95159.01
2019-01-26T03:35:41.134Z,95158.73
2019-01-26T03:38:13.849Z,95157.95
2019-01-26T03:40:46.466Z,95161.87
2019-01-26T03:43:19.107Z,95148.83
2019-01-26T03:45:51.700Z,95144.25
2019-01-26T03:48:24.271Z,95152.94
2019-01-26T03:50:56.837Z,95152.66
2019-01-26T03:53:29.409Z,95151.05
2019-01-26T03:56:02.008Z,95146.86
2019-01-26T03:58:34.598Z,95151.10
2019-01-26T04:01:07.304Z,95148.91
2019-01-26T04:03:39.941Z,95143.98
2019-01-26T04:06:12.634Z,95137.80
2019-01-26T04:08:45.397Z,95145.02
2019-01-26T04:11:17.994Z,95154.77
2019-01-26T04:13:50.591Z,95148.45
2019-01-26T04:16:23.264Z,95147.95
2019-01-26T04:18:55.991Z,95146.95
2019-01-26T04:21:28.758Z,95146.27
2019-01-26T04:24:01.368Z,95144.61
2019-01-26T04:26:34.060Z,95143.80
2019-01-26T04:29:06.733Z,95143.66
2019-01-26T04:31:39.361Z,95139.48
2019-01-26T04:34:12.055Z,95136.56
2019-01-26T04:36:44.719Z,95127.37
2019-01-26T04:39:17.571Z,95125.48
2019-01-26T04:41:50.174Z,95129.80
2019-01-26T04:44:22.899Z,95119.88
2019-01-26T04:46:55.578Z,95117.66
2019-01-26T04:49:28.286Z,95115.30
2019-01-26T04:52:03.943Z,95109.44
2019-01-26T04:54:36.502Z,95107.83
2019-01-26T04:57:09.245Z,95105.81
2019-01-26T04:59:41.834Z,95098.27
2019-01-26T05:02:14.537Z,95098.58
2019-01-26T05:04:47.081Z,95098.94
2019-01-26T05:07:19.743Z,95096.89
2019-01-26T05:09:52.469Z,95093.27
2019-01-26T05:12:25.103Z,95095.41
2019-01-26T05:14:57.795Z,95095.77
2019-01-26T05:17:30.678Z,95094.21
2019-01-26T05:20:03.377Z,95102.22
2019-01-26T05:22:35.992Z,95104.80
2019-01-26T05:25:09.458Z,95100.42
2019-01-26T05:27:42.481Z,95099.67
2019-01-26T05:30:19.641Z,95102.04
2019-01-26T05:32:52.211Z,95095.21
2019-01-26T05:35:24.944Z,95097.63
2019-01-26T05:37:57.641Z,95080.97
2019-01-26T05:40:30.255Z,95090.75
2019-01-26T05:43:02.850Z,95082.88
2019-01-26T05:45:35.538Z,95082.02
2019-01-26T05:48:08.257Z,95078.28
2019-01-26T05:50:40.932Z,95077.63
2019-01-26T05:53:13.696Z,95084.96
2019-01-26T05:55:46.465Z,95076.61
2019-01-26T05:58:19.086Z,95079.43
2019-01-26T06:00:51.682Z,95083.81
2019-01-26T06:03:24.328Z,95077.06
2019-01-26T06:05:57.015Z,95078.41
2019-01-26T06:08:29.632Z,95066.23
2019-01-26T06:11:02.281Z,95067.91
2019-01-26T06:13:34.960Z,95074.28
2019-01-26T06:16:07.778Z,95063.63
2019-01-26T06:18:40.355Z,95061.39
2019-01-26T06:21:12.996Z,95060.58
2019-01-26T06:23:46.841Z,95059.89
2019-01-26T06:26:19.575Z,95056.27
2019-01-26T06:28:52.218Z,95057.33
2019-01-26T06:31:24.892Z,95047.68
2019-01-26T06:33:57.575Z,95051.38
2019-01-26T06:36:30.338Z,95050.56
2019-01-26T06:39:03.881Z,95041.52
2019-01-26T06:41:36.849Z,95032.11
2019-01-26T06:44:09.623Z,95035.77
2019-01-26T06:46:42.223Z,95033.24
2019-01-26T06:49:14.948Z,95033.23
2019-01-26T06:51:56.474Z,95037.61
2019-01-26T06:54:29.349Z,95027.48
2019-01-26T06:57:01.963Z,95036.64
2019-01-26T06:59:34.604Z,95041.11
2019-01-26T07:02:07.603Z,95048.55
2019-01-26T07:05:07.942Z,95036.71
2019-01-26T07:07:40.580Z,95044.44
2019-01-26T07:10:13.859Z,95043.59
2019-01-26T07:12:46.606Z,95042.67
2019-01-26T07:15:20.276Z,95045.88
2019-01-26T07:17:52.918Z,95051.50
2019-01-26T07:20:25.669Z,95044.72
2019-01-26T07:22:58.398Z,95049.94
2019-01-26T07:25:30.962Z,95050.25
2019-01-26T07:28:03.591Z,95049.87
2019-01-26T07:30:36.326Z,95052.06
2019-01-26T07:33:08.961Z,95063.30
2019-01-26T07:35:41.645Z,95060.27
2019-01-26T07:38:14.495Z,95057.69
2019-01-26T07:40:47.073Z,95048.84
2019-01-26T07:43:19.816Z,95054.98
2019-01-26T07:45:52.294Z,95062.80
2019-01-26T07:48:25.156Z,95063.34
2019-01-26T07:50:57.744Z,95059.91
2019-01-26T07:53:33.466Z,95065.50
2019-01-26T07:56:06.404Z,95061.21
2019-01-26T07:58:39.133Z,95056.38
2019-01-26T08:01:11.832Z,95048.91
2019-01-26T08:03:44.475Z,95059.11
2019-01-26T08:06:17.151Z,95060.39
2019-01-26T08:08:49.868Z,95054.63
2019-01-26T08:11:22.530Z,95049.60
2019-01-26T08:13:55.112Z,95049.66
2019-01-26T08:16:27.790Z,95043.15
2019-01-26T08:19:00.457Z,95045.78
2019-01-26T08:21:33.104Z,95048.63
2019-01-26T08:24:06.999Z,95042.86
2019-01-26T08:26:39.694Z,95054.67
2019-01-26T08:29:12.353Z,95053.90
2019-01-26T08:31:45.034Z,95051.58
2019-01-26T08:34:17.742Z,95052.05
2019-01-26T08:36:50.419Z,95051.11
2019-01-26T08:39:23.069Z,95051.19
2019-01-26T08:41:55.869Z,95052.59
2019-01-26T08:44:28.490Z,95050.59
2019-01-26T08:47:02.325Z,95046.17
2019-01-26T08:49:34.961Z,95051.83
2019-01-26T08:52:07.905Z,95045.11
2019-01-26T08:54:40.092Z,95050.09
2019-01-26T08:57:12.808Z,95052.86
2019-01-26T08:59:45.351Z,95033.77
2019-01-26T09:02:35.468Z,95039.01
2019-01-26T09:05:10.898Z,95041.25
2019-01-26T09:07:43.558Z,95041.55
2019-01-26T09:10:16.146Z,95034.51
2019-01-26T09:12:48.773Z,95032.91
2019-01-26T09:15:22.110Z,95034.52
2019-01-26T09:17:54.816Z,95037.86
2019-01-26T09:20:27.562Z,95036.39
2019-01-26T09:23:00.193Z,95036.70
2019-01-26T09:25:32.782Z,95028.05
2019-01-26T09:28:06.195Z,95033.22
2019-01-26T09:30:38.801Z,95032.45
2019-01-26T09:33:11.509Z,95027.95
2019-01-26T09:35:44.202Z,95023.26
2019-01-26T09:38:16.969Z,95027.00
2019-01-26T09:40:49.550Z,95026.69
2019-01-26T09:43:22.239Z,95031.66
2019-01-26T09:45:54.843Z,95027.00
2019-01-26T09:48:27.566Z,95027.49
2019-01-26T09:51:00.300Z,95023.25
2019-01-26T09:53:32.947Z,95030.44
2019-01-26T09:56:05.662Z,95027.08
2019-01-26T09:58:38.400Z,95009.23
2019-01-26T10:01:11.052Z,95026.03
2019-01-26T10:03:43.768Z,95028.47
2019-01-26T10:06:16.362Z,95021.84
2019-01-26T10:08:48.995Z,95020.22
2019-01-26T10:11:21.613Z,95023.61
2019-01-26T10:13:54.259Z,95020.22
2019-01-26T10:16:27.290Z,95017.83
2019-01-26T10:18:59.938Z,95021.52
2019-01-26T10:21:32.820Z,95016.54
2019-01-26T10:24:05.980Z,95016.83
2019-01-26T10:26:38.725Z,95011.97
2019-01-26T10:29:11.354Z,95008.91
2019-01-26T10:31:44.252Z,95006.81
2019-01-26T10:34:17.158Z,95005.72
2019-01-26T10:37:02.598Z,95011.69
2019-01-26T10:39:35.255Z,95007.17
2019-01-26T10:42:27.065Z,95006.38
2019-01-26T10:44:59.768Z,95006.05
2019-01-26T10:47:32.388Z,95003.63
2019-01-26T10:50:05.952Z,94998.91
2019-01-26T10:52:38.692Z,94994.24
2019-01-26T10:55:12.408Z,94991.64
2019-01-26T10:57:45.044Z,94988.58
2019-01-26T11:00:18.354Z,94988.73
2019-01-26T11:02:51.164Z,94985.97
2019-01-26T11:05:24.061Z,94981.39
2019-01-26T11:07:56.715Z,94971.01
2019-01-26T11:10:29.306Z,94969.25
2019-01-26T11:13:02.036Z,94961.97
2019-01-26T11:15:34.612Z,94962.87
2019-01-26T11:18:07.460Z,94960.76
2019-01-26T11:20:40.153Z,94952.63
2019-01-26T11:23:12.728Z,94952.81
2019-01-26T11:25:45.393Z,94947.42
2019-01-26T11:28:18.050Z,94950.34
2019-01-26T11:30:50.606Z,94943.54
2019-01-26T11:33:23.203Z,94936.66
2019-01-26T11:35:55.935Z,94932.31
2019-01-26T11:38:28.563Z,94939.66
2019-01-26T11:41:01.321Z,94942.72
2019-01-26T11:43:34.014Z,94945.66
2019-01-26T11:46:27.693Z,94929.72
2019-01-26T11:49:00.733Z,94929.85
2019-01-26T11:51:49.665Z,94930.14
2019-01-26T11:54:22.268Z,94918.82
2019-01-26T11:57:12.543Z,94913.41
2019-01-26T11:59:46.970Z,94894.59
2019-01-26T12:02:29.844Z,94894.59
2019-01-26T12:05:07.763Z,94898.19
2019-01-26T12:07:40.458Z,94898.81
2019-01-26T12:10:14.415Z,94897.44
2019-01-26T12:12:47.148Z,94897.48
2019-01-26T12:15:20.186Z,94893.61
2019-01-26T12:17:52.844Z,94893.56
2019-01-26T12:20:25.617Z,94883.51
2019-01-26T12:22:58.323Z,94884.16
2019-01-26T12:25:30.960Z,94877.32
2019-01-26T12:28:03.631Z,94875.00
2019-01-26T12:30:36.339Z,94875.47
2019-01-26T12:33:09.010Z,94873.41
2019-01-26T12:35:41.711Z,94871.66
2019-01-26T12:38:14.784Z,94867.38
2019-01-26T12:40:47.494Z,94865.38
2019-01-26T12:43:20.082Z,94858.86
2019-01-26T12:45:52.780Z,94856.78
2019-01-26T12:48:25.422Z,94856.44
2019-01-26T12:50:58.208Z,94854.77
2019-01-26T12:53:30.917Z,94855.00
2019-01-26T12:56:03.582Z,94839.85
2019-01-26T12:58:36.255Z,94850.48
2019-01-26T13:01:09.464Z,94846.87
2019-01-26T13:03:42.246Z,94839.85
2019-01-26T13:06:15.037Z,94837.36
2019-01-26T13:08:47.627Z,94827.83
2019-01-26T13:11:26.863Z,94835.67
2019-01-26T13:13:59.663Z,94821.77
2019-01-26T13:16:32.302Z,94804.40
2019-01-26T13:19:05.350Z,94816.89
2019-01-26T13:21:38.046Z,94808.17
2019-01-26T13:24:11.041Z,94800.59
2019-01-26T13:26:43.843Z,94804.39
2019-01-26T13:29:16.412Z,94793.27
2019-01-26T13:31:49.104Z,94799.27
2019-01-26T13:34:21.715Z,94785.07
2019-01-26T13:36:54.765Z,94778.85
2019-01-26T13:39:27.388Z,94774.70
2019-01-26T13:42:00.117Z,94765.95
2019-01-26T13:44:32.704Z,94772.72
2019-01-26T13:47:05.411Z,94762.97
2019-01-26T13:49:43.979Z,94761.13
2019-01-26T13:52:12.687Z,94757.69
2019-01-26T13:54:45.329Z,94761.92
2019-01-26T13:57:17.993Z,94755.97
2019-01-26T13:59:50.632Z,94758.26
2019-01-26T14:02:23.246Z,94752.20
2019-01-26T14:04:55.892Z,94748.19
2019-01-26T14:07:28.491Z,94742.35
2019-01-26T14:10:01.099Z,94740.27
2019-01-26T14:12:33.718Z,94747.62
2019-01-26T14:15:07.408Z,94741.98
2019-01-26T14:17:40.060Z,94748.16
2019-01-26T14:20:16.967Z,94746.05
2019-01-26T14:22:49.647Z,94741.92
2019-01-26T14:25:22.323Z,94738.45
2019-01-26T14:27:55.104Z,94733.53
2019-01-26T14:30:44.544Z,94739.25
2019-01-26T14:33:17.260Z,94734.13
2019-01-26T14:35:49.915Z,94734.05
2019-01-26T14:38:22.548Z,94730.14
2019-01-26T14:40:55.204Z,94725.75
2019-01-26T14:43:27.869Z,94719.09
2019-01-26T14:46:00.518Z,94715.20
2019-01-26T14:48:33.158Z,94711.45
2019-01-26T14:51:05.912Z,94708.38
2019-01-26T14:53:38.581Z,94712.06
2019-01-26T14:56:11.383Z,94708.23
2019-01-26T14:58:44.415Z,94711.27
2019-01-26T15:01:16.997Z,94710.63
2019-01-26T15:03:49.624Z,94710.83
2019-01-26T15:06:22.258Z,94708.12
2019-01-26T15:08:54.937Z,94702.19
2019-01-26T15:11:27.572Z,94699.98
2019-01-26T15:14:00.373Z,94702.95
2019-01-26T15:16:34.382Z,94695.73
2019-01-26T15:19:07.092Z,94697.45
2019-01-26T15:21:39.720Z,94692.94
2019-01-26T15:24:11.785Z,94687.75
2019-01-26T15:26:44.005Z,94678.30
2019-01-26T15:29:16.591Z,94686.70
2019-01-26T15:31:49.234Z,94683.30
2019-01-26T15:34:21.841Z,94684.61
2019-01-26T15:36:54.459Z,94681.77
2019-01-26T15:39:27.032Z,94687.16
2019-01-26T15:42:02.299Z,94676.22
2019-01-26T15:44:34.859Z,94675.70
2019-01-26T15:47:07.505Z,94673.95
2019-01-26T15:49:40.166Z,94673.70
2019-01-26T15:52:13.134Z,94670.16
2019-01-26T15:54:45.734Z,94667.30
2019-01-26T15:57:18.372Z,94667.23
2019-01-26T15:59:53.472Z,94673.27
2019-01-26T16:02:25.266Z,94667.45
2019-01-26T16:04:57.980Z,94664.38
2019-01-26T16:07:30.510Z,94666.80
2019-01-26T16:10:03.139Z,94654.80
2019-01-26T16:12:35.738Z,94646.77
2019-01-26T16:15:12.256Z,94649.57
2019-01-26T16:17:44.914Z,94642.62
2019-01-26T16:20:20.318Z,94638.95
2019-01-26T16:22:53.146Z,94641.73
2019-01-26T16:25:26.047Z,94639.66
2019-01-26T16:27:58.745Z,94637.74
2019-01-26T16:30:33.438Z,94637.90
2019-01-26T16:33:06.140Z,94634.06
2019-01-26T16:35:38.874Z,94638.27
2019-01-26T16:38:11.545Z,94636.95
2019-01-26T16:40:44.245Z,94637.75
2019-01-26T16:43:16.965Z,94632.14
2019-01-26T16:45:49.610Z,94628.58
2019-01-26T16:48:22.324Z,94638.03
2019-01-26T16:50:55.298Z,94632.58
2019-01-26T16:53:28.041Z,94621.63
2019-01-26T16:56:00.752Z,94616.01
2019-01-26T16:58:33.469Z,94614.89
2019-01-26T17:01:06.313Z,94616.62
2019-01-26T17:03:39.870Z,94612.91
2019-01-26T17:06:12.619Z,94605.47
2019-01-26T17:08:45.230Z,94605.23
2019-01-26T17:11:18.015Z,94604.89
2019-01-26T17:13:50.632Z,94589.94
2019-01-26T17:16:23.404Z,94594.07
2019-01-26T17:18:56.063Z,94597.05
2019-01-26T17:21:28.666Z,94593.39
2019-01-26T17:24:01.266Z,94582.30
2019-01-26T17:26:33.899Z,94581.37
2019-01-26T17:29:06.520Z,94573.70
2019-01-26T17:31:39.164Z,94569.16
2019-01-26T17:34:12.062Z,94573.08
2019-01-26T17:36:44.691Z,94572.31
2019-01-26T17:39:17.354Z,94568.19
2019-01-26T17:41:50.070Z,94576.80
2019-01-26T17:44:22.726Z,94563.41
2019-01-26T17:46:55.395Z,94559.06
2019-01-26T17:49:28.084Z,94562.40
2019-01-26T17:52:00.732Z,94552.30
2019-01-26T17:54:33.330Z,94548.02
2019-01-26T17:57:06.099Z,94551.37
2019-01-26T17:59:38.783Z,94554.36
2019-01-26T18:02:11.551Z,94551.17
2019-01-26T18:04:44.113Z,94556.14
2019-01-26T18:07:16.827Z,94536.32
2019-01-26T18:09:49.869Z,94539.87
2019-01-26T18:12:22.498Z,94539.67
2019-01-26T18:14:55.110Z,94527.99
2019-01-26T18:17:28.032Z,94525.43
2019-01-26T18:20:00.658Z,94518.30
2019-01-26T18:22:33.364Z,94513.76
2019-01-26T18:27:57.648Z,94507.82
2019-01-26T18:30:30.606Z,94500.33
2019-01-26T18:33:03.299Z,94505.91
2019-01-26T18:35:36.011Z,94495.81
2019-01-26T18:38:09.156Z,94489.45
2019-01-26T18:40:42.012Z,94493.95
2019-01-26T18:43:14.796Z,94490.69
2019-01-26T18:45:47.343Z,94486.80
2019-01-26T18:48:19.996Z,94476.73
2019-01-26T18:50:56.266Z,94476.59
2019-01-26T18:53:27.519Z,94477.03
2019-01-26T18:56:00.135Z,94471.28
2019-01-26T18:58:32.760Z,94462.72
2019-01-26T19:01:06.156Z,94461.63
2019-01-26T19:04:22.976Z,94464.34
2019-01-26T19:06:55.610Z,94455.09
2019-01-26T19:09:28.215Z,94454.34
2019-01-26T19:12:01.024Z,94451.17
2019-01-26T19:14:33.615Z,94446.92
2019-01-26T19:17:06.468Z,94441.02
2019-01-26T19:19:39.090Z,94433.63
2019-01-26T19:22:11.943Z,94432.35
2019-01-26T19:24:44.671Z,94423.69
2019-01-26T19:27:17.270Z,94420.44
2019-01-26T19:29:50.070Z,94408.72
2019-01-26T19:32:22.616Z,94405.02
2019-01-26T19:34:55.267Z,94405.20
2019-01-26T19:37:27.927Z,94419.13
2019-01-26T19:40:00.569Z,94399.73
2019-01-26T19:42:33.197Z,94403.27
2019-01-26T19:45:08.423Z,94398.29
2019-01-26T19:47:41.140Z,94400.02
2019-01-26T19:50:18.841Z,94401.59
2019-01-26T19:52:51.493Z,94394.54
2019-01-26T19:55:24.552Z,94389.27
2019-01-26T19:57:57.241Z,94380.59
2019-01-26T20:00:32.891Z,94386.19
2019-01-26T20:03:05.754Z,94394.20
2019-01-26T20:05:38.459Z,94381.36
2019-01-26T20:08:11.239Z,94374.25
2019-01-26T20:10:43.867Z,94363.97
2019-01-26T20:13:16.611Z,94363.03
2019-01-26T20:15:49.222Z,94352.05
2019-01-26T20:18:21.969Z,94350.66
2019-01-26T20:20:54.570Z,94348.13
2019-01-26T20:23:27.274Z,94342.17
2019-01-26T20:26:00.022Z,94339.92
2019-01-26T20:28:32.743Z,94335.08
2019-01-26T20:31:05.572Z,94337.31
2019-01-26T20:33:38.330Z,94330.59
2019-01-26T20:36:11.041Z,94320.20
2019-01-26T20:38:43.603Z,94316.00
2019-01-26T20:41:16.317Z,94313.08
2019-01-26T20:43:49.037Z,94305.23
2019-01-26T20:46:21.740Z,94302.00
2019-01-26T20:48:54.390Z,94300.77
2019-01-26T20:51:27.184Z,94291.51
2019-01-26T20:53:59.923Z,94285.89
2019-01-26T20:56:32.589Z,94286.38
2019-01-26T20:59:05.497Z,94273.53
2019-01-26T21:01:38.170Z,94268.55
2019-01-26T21:04:10.902Z,94264.21
2019-01-26T21:06:43.566Z,94254.61
2019-01-26T21:09:16.243Z,94250.95
2019-01-26T21:11:48.913Z,94241.15
2019-01-26T21:14:21.453Z,94241.64
2019-01-26T21:16:54.185Z,94232.16
2019-01-26T21:19:27.979Z,94228.90
2019-01-26T21:22:00.566Z,94222.34
2019-01-26T21:24:33.290Z,94212.91
2019-01-26T21:27:05.954Z,94213.83
2019-01-26T21:29:38.531Z,94207.84
2019-01-26T21:32:11.225Z,94199.55
2019-01-26T21:34:43.951Z,94197.15
2019-01-26T21:37:16.588Z,94200.66
2019-01-26T21:39:49.182Z,94190.12
2019-01-26T21:42:21.888Z,94189.70
2019-01-26T21:44:54.509Z,94179.09
2019-01-26T21:47:27.340Z,94180.79
2019-01-26T21:49:59.875Z,94174.89
2019-01-26T21:52:32.486Z,94157.59
2019-01-26T21:55:05.865Z,94152.75
2019-01-26T21:57:38.581Z,94158.03
2019-01-26T22:00:19.370Z,94147.11
2019-01-26T22:02:52.013Z,94146.67
2019-01-26T22:05:24.869Z,94137.86
2019-01-26T22:07:57.474Z,94135.55
2019-01-26T22:10:30.522Z,94141.08
2019-01-26T22:13:03.147Z,94134.19
2019-01-26T22:15:35.813Z,94135.98
2019-01-26T22:18:08.647Z,94139.97
2019-01-26T22:20:41.317Z,94133.95
2019-01-26T22:23:13.925Z,94126.95
2019-01-26T22:25:46.773Z,94115.73
2019-01-26T22:28:19.433Z,94128.41
2019-01-26T22:30:52.097Z,94110.33
2019-01-26T22:33:24.665Z,94109.97
2019-01-26T22:35:57.316Z,94097.93
2019-01-26T22:38:29.875Z,94087.95
2019-01-26T22:41:02.472Z,94089.21
2019-01-26T22:43:35.123Z,94088.56
2019-01-26T22:46:08.334Z,94077.50
2019-01-26T22:48:40.991Z,94079.37
2019-01-26T22:51:13.686Z,94070.62
2019-01-26T22:53:46.268Z,94066.69
2019-01-26T22:56:18.862Z,94071.87
2019-01-26T22:58:51.452Z,94060.98
2019-01-26T23:01:39.273Z,94067.67
2019-01-26T23:04:52.194Z,94056.33
2019-01-26T23:07:49.555Z,94051.05
2019-01-26T23:10:48.412Z,94046.07
2019-01-26T23:13:53.569Z,94036.96
2019-01-26T23:17:33.702Z,94038.64
2019-01-26T23:20:47.052Z,94029.44
2019-01-26T23:23:56.241Z,94022.54
2019-01-26T23:27:11.029Z,94020.50
2019-01-26T23:30:22.447Z,94016.82
2019-01-26T23:32:55.174Z,94001.13
2019-01-26T23:35:27.770Z,93997.88
2019-01-26T23:38:00.432Z,93996.77
2019-01-26T23:40:33.055Z,93995.77
2019-01-26T23:43:05.861Z,93991.70
2019-01-26T23:45:38.437Z,93984.22
2019-01-26T23:48:11.351Z,93976.21
2019-01-26T23:50:44.068Z,93964.05
2019-01-26T23:53:17.395Z,93966.08
2019-01-26T23:55:53.038Z,93961.50
2019-01-26T23:58:25.773Z,93961.05
